Time;durP1;ratioP1;P1;durP2;ratioP2;P2;SDS_P1;SDS_P2;PMS_P1;PMS_P2;Temp;Humidity;BMP_temperature;BMP_pressure;BME280_temperature;BME280_humidity;BME280_pressure;Samples;Min_cycle;Max_cycle;Signal;HPM_P1;HPM_P2
2021/12/20 00:00:29;;;;;;;3.13;2.93;;;;;;;-2.66;100.00;91579.44;4881812;29;20618;-71
2021/12/20 00:02:59;;;;;;;7.00;4.70;;;;;;;-2.63;99.47;91579.41;4882061;29;20601;-71
2021/12/20 00:05:27;;;;;;;3.37;3.27;;;;;;;-2.60;99.26;91587.63;4882516;29;20202;-71
2021/12/20 00:07:56;;;;;;;2.83;2.73;;;;;;;-2.66;99.99;91587.69;4882002;29;20509;-71
2021/12/20 00:10:24;;;;;;;7.43;6.03;;;;;;;-2.67;99.68;91595.91;4882311;29;20558;-71
2021/12/20 00:12:51;;;;;;;4.77;4.37;;;;;;;-2.69;99.20;91604.16;4881703;29;20603;-71
2021/12/20 00:15:19;;;;;;;4.00;3.67;;;;;;;-2.88;100.00;91588.72;4881524;29;20548;-71
2021/12/20 00:17:47;;;;;;;5.17;4.80;;;;;;;-2.98;100.00;91595.38;4881608;29;20293;-71
2021/12/20 00:20:14;;;;;;;5.93;4.47;;;;;;;-2.88;99.75;91588.72;4882061;29;20281;-71
2021/12/20 00:22:42;;;;;;;5.50;4.67;;;;;;;-2.81;99.19;91605.13;4882082;29;20241;-71
2021/12/20 00:25:11;;;;;;;4.07;3.70;;;;;;;-2.80;99.49;91609.22;4882149;29;20467;-71
2021/12/20 00:27:39;;;;;;;4.00;3.67;;;;;;;-2.83;99.19;91615.84;4881751;29;20552;-71
2021/12/20 00:30:07;;;;;;;14.30;2.80;;;;;;;-2.81;97.61;91614.19;4881801;29;20567;-71
2021/12/20 00:32:34;;;;;;;3.50;3.23;;;;;;;-2.87;98.17;91619.19;4881108;29;20206;-71
2021/12/20 00:35:03;;;;;;;3.70;3.53;;;;;;;-2.84;97.83;91636.44;4880981;29;20236;-71
2021/12/20 00:40:22;;;;;;;4.43;4.13;;;;;;;-2.83;96.73;91647.97;4881355;29;20594;-71
2021/12/20 00:42:50;;;;;;;5.17;4.77;;;;;;;-3.00;97.88;91638.25;4881598;29;20472;-71
2021/12/20 00:45:19;;;;;;;4.10;3.50;;;;;;;-3.17;99.11;91640.84;4880778;29;20581;-71
2021/12/20 00:47:46;;;;;;;3.53;3.33;;;;;;;-3.41;100.00;91641.84;4881548;29;20588;-71
2021/12/20 00:50:16;;;;;;;5.23;3.70;;;;;;;-3.51;100.00;91637.81;4881164;29;20241;-71
2021/12/20 00:52:44;;;;;;;4.33;3.93;;;;;;;-3.63;100.00;91637.88;4880209;29;20564;-71
2021/12/20 00:55:15;;;;;;;2.87;2.00;;;;;;;-3.57;100.00;91627.16;4880920;29;20597;-71
2021/12/20 00:57:44;;;;;;;3.77;3.50;;;;;;;-3.71;100.00;91623.94;4881065;29;20522;-71
2021/12/20 01:00:14;;;;;;;3.70;2.33;;;;;;;-3.77;100.00;91615.75;4880742;29;20480;-71
2021/12/20 01:02:42;;;;;;;3.93;3.70;;;;;;;-3.67;100.00;91611.59;4881282;29;20521;-71
2021/12/20 01:05:10;;;;;;;4.50;3.07;;;;;;;-3.79;100.00;91599.34;4880297;29;20218;-71
2021/12/20 01:07:37;;;;;;;2.17;2.17;;;;;;;-3.86;100.00;91605.13;4881599;29;20622;-72
2021/12/20 01:10:08;;;;;;;4.10;2.20;;;;;;;-3.84;100.00;91601.84;4880725;29;20601;-71
2021/12/20 01:12:42;;;;;;;2.10;2.10;;;;;;;-3.86;100.00;91598.56;4880976;29;20613;-71
2021/12/20 01:15:14;;;;;;;3.23;3.13;;;;;;;-3.79;100.00;91592.75;4880417;29;20585;-71
2021/12/20 01:17:41;;;;;;;4.17;3.57;;;;;;;-3.80;100.00;91600.16;4880054;29;20614;-72
2021/12/20 01:20:09;;;;;;;9.80;2.67;;;;;;;-3.70;100.00;91608.31;4880333;29;20201;-72
2021/12/20 01:22:37;;;;;;;2.70;2.50;;;;;;;-3.66;100.00;91609.97;4879876;29;20256;-72
2021/12/20 01:25:05;;;;;;;6.97;3.20;;;;;;;-3.60;100.00;91603.31;4880694;29;20598;-72
2021/12/20 01:27:32;;;;;;;3.93;2.63;;;;;;;-3.49;100.00;91611.44;4881301;29;20201;-72
2021/12/20 01:29:59;;;;;;;2.20;2.20;;;;;;;-3.38;99.82;91611.41;4880076;29;20598;-72
2021/12/20 01:32:28;;;;;;;17.90;4.07;;;;;;;-3.38;99.00;91604.78;4880362;29;20621;-72
2021/12/20 01:34:55;;;;;;;2.17;2.17;;;;;;;-3.37;98.28;91613.00;4880825;29;20238;-72
2021/12/20 01:37:22;;;;;;;3.07;2.77;;;;;;;-3.67;100.00;91603.38;4880531;29;20245;-72
2021/12/20 01:39:49;;;;;;;3.03;2.77;;;;;;;-3.60;98.55;91624.69;4880229;29;20599;-72
2021/12/20 01:42:21;;;;;;;2.77;2.67;;;;;;;-3.81;100.00;91605.91;4880814;29;20507;-72
2021/12/20 01:44:49;;;;;;;3.17;3.00;;;;;;;-3.76;98.87;91624.81;4879324;29;20481;-72
2021/12/20 01:47:17;;;;;;;2.20;2.10;;;;;;;-3.73;99.25;91611.66;4880392;29;20652;-72
2021/12/20 01:49:56;;;;;;;2.37;2.13;;;;;;;-3.88;100.00;91596.91;4879925;29;20642;-72
2021/12/20 01:52:27;;;;;;;3.70;3.27;;;;;;;-3.76;98.61;91624.81;4880458;29;20205;-72
2021/12/20 01:54:54;;;;;;;1.83;1.83;;;;;;;-3.91;99.44;91587.91;4880417;29;20557;-72
2021/12/20 01:57:23;;;;;;;2.47;2.37;;;;;;;-3.86;99.75;91595.28;4880273;29;20597;-72
2021/12/20 01:59:50;;;;;;;1.80;1.80;;;;;;;-3.79;98.51;91594.41;4880221;29;20614;-72
2021/12/20 02:02:17;;;;;;;1.13;1.13;;;;;;;-3.77;98.00;91582.88;4879873;29;20239;-72
2021/12/20 02:04:49;;;;;;;1.60;0.83;;;;;;;-3.75;99.26;91586.16;4881035;29;20556;-72
2021/12/20 02:07:34;;;;;;;2.27;2.23;;;;;;;-3.80;98.28;91577.97;4880161;29;20638;-72
2021/12/20 02:10:01;;;;;;;1.90;1.80;;;;;;;-3.70;98.42;91596.81;4880742;29;20204;-72
2021/12/20 02:12:29;;;;;;;1.37;1.37;;;;;;;-3.84;98.97;91584.56;4883564;29;20575;-72
2021/12/20 02:14:56;;;;;;;1.70;1.60;;;;;;;-3.80;98.33;91585.38;4884125;29;20661;-72
2021/12/20 02:17:23;;;;;;;0.90;0.90;;;;;;;-3.86;99.41;91586.22;4884048;29;20295;-72
2021/12/20 02:19:51;;;;;;;1.40;1.40;;;;;;;-3.77;99.22;91591.09;4883651;29;20590;-72
2021/12/20 02:22:20;;;;;;;1.70;1.70;;;;;;;-3.74;98.54;91589.44;4883553;29;20641;-72
2021/12/20 02:24:47;;;;;;;3.60;1.30;;;;;;;-3.68;98.26;91589.41;4883661;29;20618;-72
2021/12/20 02:27:14;;;;;;;1.00;1.00;;;;;;;-3.66;97.40;91591.00;4883861;29;20306;-72
2021/12/20 02:29:57;;;;;;;5.93;2.10;;;;;;;-3.67;97.39;91596.81;4884398;29;20597;-72
2021/12/20 02:37:57;;;;;;;1.27;1.27;;;;;;;-3.84;96.24;91591.97;4883717;29;20244;-72
2021/12/20 02:40:24;;;;;;;1.87;1.87;;;;;;;-4.12;99.01;91583.09;4883014;29;20228;-72
2021/12/20 02:42:52;;;;;;;3.07;1.93;;;;;;;-4.12;98.83;91577.34;4883344;29;20201;-72
2021/12/20 02:45:19;;;;;;;1.13;1.13;;;;;;;-4.35;99.57;91572.53;4883956;29;20661;-72
2021/12/20 02:47:49;;;;;;;2.70;1.57;;;;;;;-4.15;99.37;91584.75;4882975;29;20587;-72
2021/12/20 02:50:17;;;;;;;4.20;2.20;;;;;;;-4.03;98.34;91602.75;4883506;29;20212;-72
2021/12/20 02:52:44;;;;;;;1.47;1.47;;;;;;;-4.03;98.10;91597.84;4883610;29;20593;-72
2021/12/20 02:55:13;;;;;;;2.90;1.57;;;;;;;-4.15;99.28;91594.59;4882616;29;20700;-72
2021/12/20 02:57:41;;;;;;;1.30;1.20;;;;;;;-4.38;100.00;91580.75;4882925;29;20627;-72
2021/12/20 03:00:10;;;;;;;1.10;1.10;;;;;;;-4.28;100.00;91602.06;4883025;29;20504;-72
2021/12/20 03:02:37;;;;;;;0.63;0.63;;;;;;;-4.19;99.00;91606.13;4883771;29;20651;-72
2021/12/20 03:05:05;;;;;;;0.90;0.90;;;;;;;-4.22;98.31;91604.50;4882807;29;20562;-72
2021/12/20 03:07:41;;;;;;;1.13;1.13;;;;;;;-4.16;98.41;91611.03;4883195;29;20588;-72
2021/12/20 03:10:11;;;;;;;1.47;1.47;;;;;;;-4.22;98.81;91606.97;4883641;29;20572;-72
2021/12/20 03:12:40;;;;;;;0.50;0.50;;;;;;;-4.22;98.09;91616.81;4883006;29;20558;-72
2021/12/20 03:15:13;;;;;;;2.33;2.13;;;;;;;-4.26;97.95;91607.00;4882437;29;20630;-72
2021/12/20 03:17:40;;;;;;;1.20;1.20;;;;;;;-4.34;99.44;91607.00;4882995;29;20515;-72
2021/12/20 03:20:08;;;;;;;1.77;1.67;;;;;;;-4.22;97.45;91608.59;4882110;29;20578;-72
2021/12/20 03:22:35;;;;;;;1.83;1.70;;;;;;;-4.13;96.67;91617.63;4882309;29;20555;-72
2021/12/20 03:25:03;;;;;;;2.57;2.37;;;;;;;-4.13;95.73;91623.38;4882822;29;20291;-72
2021/12/20 03:27:30;;;;;;;4.33;2.23;;;;;;;-4.53;97.68;91610.38;4883320;29;20547;-72
2021/12/20 03:29:59;;;;;;;3.50;2.07;;;;;;;-4.61;98.51;91604.66;4882255;29;20504;-72
2021/12/20 03:32:26;;;;;;;2.43;2.20;;;;;;;-4.54;97.51;91618.59;4882289;29;20639;-72
2021/12/20 03:34:54;;;;;;;2.20;1.53;;;;;;;-4.43;97.57;91616.91;4882594;29;20585;-72
2021/12/20 03:37:21;;;;;;;1.63;1.63;;;;;;;-4.51;99.16;91607.94;4882186;29;20500;-72
2021/12/20 03:39:48;;;;;;;2.53;1.40;;;;;;;-4.43;98.05;91614.44;4882820;29;20484;-72
2021/12/20 03:42:18;;;;;;;1.50;1.50;;;;;;;-4.61;99.32;91593.16;4883366;29;20484;-72
2021/12/20 03:44:45;;;;;;;1.30;1.30;;;;;;;-4.59;99.59;91605.47;4882509;29;20679;-72
2021/12/20 03:47:15;;;;;;;1.60;0.90;;;;;;;-4.56;99.34;91588.22;4882130;29;20484;-72
2021/12/20 03:49:42;;;;;;;1.10;1.10;;;;;;;-4.47;99.98;91605.44;4882331;29;20199;-72
2021/12/20 03:52:10;;;;;;;1.30;1.30;;;;;;;-4.49;100.00;91599.69;4883182;29;20548;-72
2021/12/20 03:54:38;;;;;;;0.97;0.97;;;;;;;-4.54;100.00;91593.97;4882590;29;20437;-72
2021/12/20 03:57:07;;;;;;;1.10;1.10;;;;;;;-4.34;99.55;91588.97;4882783;29;20219;-72
2021/12/20 03:59:34;;;;;;;1.27;1.27;;;;;;;-4.28;98.32;91584.81;4882126;29;20602;-72
2021/12/20 04:02:02;;;;;;;0.90;0.90;;;;;;;-4.45;100.00;91573.41;4882609;29;20614;-72
2021/12/20 04:07:15;;;;;;;1.87;1.80;;;;;;;-4.30;98.17;91596.34;4881447;29;20475;-72
2021/12/20 04:09:43;;;;;;;6.13;3.73;;;;;;;-4.28;98.87;91594.66;4882006;29;20207;-72
2021/12/20 04:12:11;;;;;;;3.00;2.77;;;;;;;-4.26;96.94;91590.56;4881882;29;20508;-72
2021/12/20 04:14:38;;;;;;;2.07;2.00;;;;;;;-4.32;95.15;91611.94;4881213;29;20205;-72
2021/12/20 04:17:05;;;;;;;2.83;2.63;;;;;;;-4.58;95.78;91586.59;4882225;29;20220;-72
2021/12/20 04:19:34;;;;;;;1.90;1.90;;;;;;;-4.50;95.05;91602.97;4881708;29;20596;-72
2021/12/20 04:22:01;;;;;;;1.13;1.13;;;;;;;-4.54;95.01;91606.28;4881405;29;20660;-72
2021/12/20 04:24:28;;;;;;;2.70;2.70;;;;;;;-4.54;94.24;91615.31;4881889;29;20572;-72
2021/12/20 04:26:56;;;;;;;3.40;3.30;;;;;;;-4.59;93.23;91622.72;4882059;29;20233;-72
2021/12/20 04:29:23;;;;;;;8.03;3.60;;;;;;;-4.85;93.63;91605.56;4881751;29;20196;-72
2021/12/20 04:31:50;;;;;;;2.27;2.17;;;;;;;-4.99;94.03;91626.09;4881801;29;20203;-73
2021/12/20 04:34:18;;;;;;;3.00;2.87;;;;;;;-5.13;95.05;91611.38;4882163;29;20471;-73
2021/12/20 04:36:46;;;;;;;2.63;2.53;;;;;;;-5.13;95.65;91626.13;4881334;29;20470;-73
2021/12/20 04:39:18;;;;;;;3.13;2.93;;;;;;;-5.14;96.14;91627.78;4881292;29;20618;-73
2021/12/20 04:41:45;;;;;;;2.20;2.20;;;;;;;-5.28;98.64;91626.94;4881459;29;20564;-73
2021/12/20 04:44:12;;;;;;;1.57;1.57;;;;;;;-5.27;99.31;91626.13;4881457;29;20587;-73
2021/12/20 04:46:40;;;;;;;1.97;1.97;;;;;;;-5.19;98.73;91640.91;4881931;29;20579;-73
2021/12/20 04:49:07;;;;;;;2.33;2.23;;;;;;;-5.25;100.00;91640.91;4880661;29;20488;-73
2021/12/20 04:51:34;;;;;;;2.30;2.27;;;;;;;-5.26;100.00;91629.41;4881901;29;20213;-73
2021/12/20 04:54:04;;;;;;;5.10;3.40;;;;;;;-5.17;100.00;91647.44;4880531;29;20195;-73
2021/12/20 04:56:31;;;;;;;8.33;2.17;;;;;;;-5.12;100.00;91658.13;4880785;29;20594;-73
2021/12/20 04:58:58;;;;;;;2.70;2.67;;;;;;;-5.19;100.00;91655.69;4881097;29;20492;-73
2021/12/20 05:01:26;;;;;;;4.20;2.47;;;;;;;-5.11;100.00;91649.09;4880797;29;20632;-73
2021/12/20 05:03:53;;;;;;;3.07;2.97;;;;;;;-5.13;100.00;91644.19;4880242;29;20560;-73
2021/12/20 05:06:21;;;;;;;3.33;3.23;;;;;;;-5.00;100.00;91647.44;4880297;29;20494;-73
2021/12/20 05:08:50;;;;;;;6.40;4.83;;;;;;;-4.79;100.00;91646.59;4880615;29;20195;-73
2021/12/20 05:11:20;;;;;;;1.87;1.87;;;;;;;-4.67;100.00;91649.00;4880116;29;20507;-72
2021/12/20 05:13:48;;;;;;;2.37;2.30;;;;;;;-4.76;100.00;91617.84;4880820;29;20576;-72
2021/12/20 05:16:18;;;;;;;5.10;4.70;;;;;;;-4.55;100.00;91646.53;4881553;29;20445;-73
2021/12/20 05:18:46;;;;;;;3.40;3.27;;;;;;;-4.48;100.00;91645.69;4881175;29;20232;-72
2021/12/20 05:21:14;;;;;;;10.83;5.17;;;;;;;-4.48;100.00;91617.75;4881175;29;20590;-73
2021/12/20 05:23:41;;;;;;;2.90;2.70;;;;;;;-4.65;100.00;91598.09;4879887;29;20611;-72
2021/12/20 05:26:09;;;;;;;2.90;2.77;;;;;;;-4.77;100.00;91556.28;4881083;29;20649;-73
2021/12/20 05:28:37;;;;;;;3.53;3.43;;;;;;;-4.03;100.00;91644.69;4878767;29;20464;-72
2021/12/20 05:31:06;;;;;;;3.13;2.93;;;;;;;-4.05;100.00;91631.53;4870483;29;20568;-73
2021/12/20 05:33:34;;;;;;;3.03;2.83;;;;;;;-3.96;100.00;91638.09;4867821;29;20516;-72
2021/12/20 05:36:01;;;;;;;6.30;3.80;;;;;;;-3.88;100.00;91641.31;4871908;29;20532;-73
2021/12/20 05:38:29;;;;;;;4.77;4.27;;;;;;;-3.71;100.00;91646.97;4874343;28;20230;-73
2021/12/20 05:40:56;;;;;;;12.33;6.63;;;;;;;-3.61;100.00;91651.06;4872576;29;20591;-72
2021/12/20 05:43:23;;;;;;;22.33;8.23;;;;;;;-3.56;100.00;91649.38;4862208;29;20567;-72
2021/12/20 05:45:52;;;;;;;12.87;6.43;;;;;;;-3.52;99.80;91665.78;4870783;29;20589;-73
2021/12/20 05:48:19;;;;;;;10.03;5.43;;;;;;;-3.68;95.61;91680.69;4874186;29;20577;-72
2021/12/20 05:50:46;;;;;;;10.83;9.50;;;;;;;-3.83;92.86;91697.19;4872477;29;20500;-72
2021/12/20 05:53:14;;;;;;;6.93;6.63;;;;;;;-3.96;93.07;91694.81;4873501;29;20574;-73
2021/12/20 05:55:41;;;;;;;8.70;7.93;;;;;;;-4.19;92.46;91702.28;4873166;29;20583;-72
2021/12/20 05:58:08;;;;;;;3.10;2.50;;;;;;;-4.48;93.38;91692.50;4874755;29;20516;-72
2021/12/20 06:00:36;;;;;;;6.37;4.63;;;;;;;-4.81;96.28;91680.25;4869462;29;20470;-71
2021/12/20 06:03:04;;;;;;;4.83;4.47;;;;;;;-4.65;95.65;91699.09;4865747;29;20597;-72
2021/12/20 06:05:32;;;;;;;4.33;4.03;;;;;;;-4.66;95.46;91709.78;4869284;29;20520;-72
2021/12/20 06:07:59;;;;;;;4.80;3.80;;;;;;;-4.87;96.59;91707.34;4868355;29;20212;-72
2021/12/20 06:10:26;;;;;;;3.80;3.70;;;;;;;-5.22;99.38;91702.41;4873418;29;20588;-72
2021/12/20 06:12:54;;;;;;;6.63;6.03;;;;;;;-5.26;100.00;91698.31;4870736;29;20551;-72
2021/12/20 06:15:21;;;;;;;7.13;5.87;;;;;;;-5.10;99.02;91705.72;4873378;29;20612;-72
2021/12/20 06:17:48;;;;;;;5.80;4.00;;;;;;;-5.26;100.00;91706.53;4872049;29;20568;-72
2021/12/20 06:20:17;;;;;;;6.00;5.60;;;;;;;-5.04;99.19;91714.75;4866581;29;20249;-72
2021/12/20 06:22:44;;;;;;;4.77;4.43;;;;;;;-5.09;100.00;91721.31;4874335;29;20655;-71
2021/12/20 06:25:12;;;;;;;16.57;5.70;;;;;;;-5.21;100.00;91707.34;4872292;29;20557;-72
2021/12/20 06:27:40;;;;;;;5.43;5.07;;;;;;;-4.98;100.00;91719.66;4873722;29;20560;-72
2021/12/20 06:30:09;;;;;;;11.93;8.40;;;;;;;-5.01;100.00;91720.47;4871242;29;20491;-72
2021/12/20 06:32:37;;;;;;;11.00;7.97;;;;;;;-5.01;100.00;91707.34;4870527;29;20563;-72
2021/12/20 06:35:05;;;;;;;8.90;7.90;;;;;;;-4.73;100.00;91742.66;4874052;29;20569;-73
2021/12/20 06:37:34;;;;;;;7.47;6.47;;;;;;;-4.54;100.00;91741.78;4873622;29;20202;-72
2021/12/20 06:40:02;;;;;;;9.40;7.63;;;;;;;-4.38;100.00;91752.44;4872469;29;20508;-70
2021/12/20 06:42:30;;;;;;;15.67;8.83;;;;;;;-4.49;100.00;91741.78;4876112;29;20618;-71
2021/12/20 06:44:57;;;;;;;17.50;8.27;;;;;;;-4.48;100.00;91739.31;4877260;29;20653;-71
2021/12/20 06:47:25;;;;;;;8.20;7.33;;;;;;;-4.54;100.00;91743.44;4871204;29;20476;-72
2021/12/20 06:49:53;;;;;;;11.43;10.27;;;;;;;-4.47;100.00;91750.84;4869620;29;20579;-71
2021/12/20 06:52:20;;;;;;;7.97;7.50;;;;;;;-4.52;100.00;91747.56;4872640;29;20477;-71
2021/12/20 06:54:50;;;;;;;16.03;7.60;;;;;;;-4.40;100.00;91756.56;4874526;29;20481;-70
2021/12/20 06:57:20;;;;;;;7.63;6.97;;;;;;;-4.22;99.28;91754.06;4875977;29;20480;-70
2021/12/20 06:59:47;;;;;;;15.27;9.73;;;;;;;-4.24;99.97;91749.16;4873342;29;20647;-71
2021/12/20 07:02:16;;;;;;;15.53;9.13;;;;;;;-4.17;100.00;91757.34;4872505;29;20558;-71
2021/12/20 07:04:43;;;;;;;17.27;9.67;;;;;;;-4.09;100.00;91760.59;4875163;29;20570;-71
2021/12/20 07:07:10;;;;;;;8.63;7.43;;;;;;;-4.08;100.00;91771.28;4879541;29;20588;-70
2021/12/20 07:09:37;;;;;;;9.47;6.63;;;;;;;-3.89;99.84;91786.06;4882081;29;20942;-71
2021/12/20 07:12:07;;;;;;;20.27;11.50;;;;;;;-3.69;98.93;91778.56;4876189;29;20509;-71
2021/12/20 07:14:34;;;;;;;20.70;11.70;;;;;;;-3.66;99.00;91766.19;4871745;29;20607;-71
2021/12/20 07:17:02;;;;;;;12.87;11.03;;;;;;;-3.58;99.25;91781.00;4877987;29;20614;-71
2021/12/20 07:19:29;;;;;;;14.73;10.83;;;;;;;-3.49;98.97;91773.53;4877322;29;20606;-71
2021/12/20 07:21:56;;;;;;;24.17;13.03;;;;;;;-3.60;98.77;91758.78;4879425;29;20214;-72
2021/12/20 07:24:24;;;;;;;27.93;16.33;;;;;;;-3.32;98.49;91768.53;4875439;29;20454;-71
2021/12/20 07:26:51;;;;;;;23.30;16.53;;;;;;;-3.18;98.59;91774.22;4876843;29;20578;-71
2021/12/20 07:29:20;;;;;;;16.20;12.47;;;;;;;-3.06;98.86;91767.56;4878523;29;20508;-71
2021/12/20 07:31:51;;;;;;;25.57;16.60;;;;;;;-2.92;98.08;91768.28;4878235;29;20498;-71
2021/12/20 07:34:18;;;;;;;30.70;14.33;;;;;;;-3.12;98.37;91734.66;4879876;29;20206;-71
2021/12/20 07:36:45;;;;;;;46.93;17.37;;;;;;;-2.76;99.18;91773.13;4876315;29;20203;-71
2021/12/20 07:39:13;;;;;;;29.67;14.47;;;;;;;-2.53;99.00;91771.28;4880496;29;20489;-71
2021/12/20 07:41:42;;;;;;;22.43;17.77;;;;;;;-2.32;99.31;91772.78;4876691;28;21797;-71
2021/12/20 07:44:09;;;;;;;36.37;19.63;;;;;;;-2.16;99.80;91775.09;4879915;29;20209;-72
2021/12/20 07:46:38;;;;;;;38.53;20.27;;;;;;;-1.88;99.84;91778.09;4874968;29;20512;-72
2021/12/20 07:49:06;;;;;;;48.63;22.17;;;;;;;-1.68;98.59;91770.44;4874027;29;20580;-72
2021/12/20 07:51:33;;;;;;;32.73;19.87;;;;;;;-1.56;98.31;91757.94;4878134;29;20230;-71
2021/12/20 07:54:00;;;;;;;43.40;21.40;;;;;;;-1.42;98.31;91766.03;4874657;29;20583;-72
2021/12/20 07:56:28;;;;;;;28.73;17.73;;;;;;;-1.34;97.46;91785.75;4868493;29;20480;-72
2021/12/20 07:58:55;;;;;;;23.40;14.07;;;;;;;-1.35;93.58;91802.25;4873976;29;20620;-72
2021/12/20 08:01:22;;;;;;;30.77;19.07;;;;;;;-1.65;92.90;91809.22;4875778;29;20584;-72
2021/12/20 08:03:51;;;;;;;26.23;13.23;;;;;;;-1.57;94.00;91800.88;4873069;29;20505;-72
2021/12/20 08:06:18;;;;;;;51.20;21.33;;;;;;;-1.53;93.88;91795.06;4872427;29;20520;-72
2021/12/20 08:08:46;;;;;;;26.30;20.80;;;;;;;-1.45;94.09;91797.44;4870509;29;20624;-71
2021/12/20 08:11:13;;;;;;;29.00;21.57;;;;;;;-1.46;92.49;91808.16;4876980;29;20484;-71
2021/12/20 08:13:44;;;;;;;30.77;19.63;;;;;;;-1.96;92.19;91821.06;4874229;29;20306;-72
2021/12/20 08:16:12;;;;;;;22.10;11.57;;;;;;;-1.94;92.82;91807.88;4875890;29;20562;-72
2021/12/20 08:18:42;;;;;;;16.87;12.27;;;;;;;-2.09;94.67;91785.75;4870659;29;20608;-72
2021/12/20 08:21:11;;;;;;;25.13;14.07;;;;;;;-2.07;94.64;91801.38;4871175;29;20674;-72
2021/12/20 08:23:40;;;;;;;18.67;14.50;;;;;;;-2.01;95.25;91793.91;4872575;29;20242;-71
2021/12/20 08:26:09;;;;;;;12.07;11.03;;;;;;;-1.79;94.26;91792.03;4874181;29;20225;-72
2021/12/20 08:28:37;;;;;;;11.70;10.53;;;;;;;-1.70;94.87;91796.91;4871757;29;20595;-72
2021/12/20 08:31:04;;;;;;;19.57;11.00;;;;;;;-1.74;94.99;91778.78;4872645;29;20595;-72
2021/12/20 08:33:32;;;;;;;13.70;11.70;;;;;;;-1.61;94.92;91791.00;4872879;29;20565;-72
2021/12/20 08:36:00;;;;;;;21.87;14.00;;;;;;;-1.49;94.94;91791.72;4874212;29;20553;-72
2021/12/20 08:38:29;;;;;;;21.93;15.90;;;;;;;-1.35;95.08;91787.38;4870630;29;20282;-72
2021/12/20 08:40:58;;;;;;;29.87;16.90;;;;;;;-1.22;94.87;91777.34;4874562;29;20252;-72
2021/12/20 08:43:26;;;;;;;17.57;16.07;;;;;;;-1.11;95.74;91783.78;4866469;29;20569;-72
2021/12/20 08:45:56;;;;;;;48.83;23.87;;;;;;;-0.91;95.10;91776.94;4872827;29;20207;-73
2021/12/20 08:48:23;;;;;;;42.73;22.10;;;;;;;-0.78;94.84;91774.25;4871771;29;20501;-72
2021/12/20 08:50:50;;;;;;;28.90;22.43;;;;;;;-0.61;94.90;91774.81;4872444;29;20300;-72
2021/12/20 08:53:18;;;;;;;49.07;23.57;;;;;;;-0.49;94.86;91777.13;4871180;29;20505;-73
2021/12/20 08:55:46;;;;;;;41.57;24.20;;;;;;;-0.43;95.02;91784.47;4871425;29;20225;-72
2021/12/20 08:58:14;;;;;;;41.87;28.07;;;;;;;-0.37;94.87;91781.91;4876697;29;20262;-73
2021/12/20 09:00:41;;;;;;;53.33;32.07;;;;;;;-0.15;93.09;91793.13;4869070;29;20581;-73
2021/12/20 09:03:08;;;;;;;34.37;28.17;;;;;;;-0.10;93.09;91793.88;4872590;29;20488;-73
2021/12/20 09:05:36;;;;;;;53.57;31.17;;;;;;;0.10;93.16;91790.25;4880305;29;20588;-73
2021/12/20 09:08:06;;;;;;;58.97;37.80;;;;;;;0.28;92.91;91794.88;4870245;29;20203;-73
2021/12/20 09:10:36;;;;;;;46.13;31.43;;;;;;;0.38;91.17;91809.59;4863592;29;20232;-73
2021/12/20 09:13:07;;;;;;;43.20;31.60;;;;;;;0.40;92.04;91782.22;4872598;29;20503;-72
2021/12/20 09:15:35;;;;;;;89.50;39.17;;;;;;;0.62;92.54;91773.50;4874816;29;20501;-72
2021/12/20 09:18:05;;;;;;;76.60;41.67;;;;;;;0.82;92.88;91778.94;4879398;29;20485;-70
2021/12/20 09:20:33;;;;;;;85.93;42.30;;;;;;;0.76;93.46;91773.25;4870829;29;20528;-71
2021/12/20 09:23:04;;;;;;;44.80;31.00;;;;;;;1.24;93.97;91778.88;4873536;29;20616;-71
2021/12/20 09:25:34;;;;;;;55.53;37.97;;;;;;;1.59;94.72;91754.00;4881063;29;20597;-72
2021/12/20 09:28:08;;;;;;;66.23;40.00;;;;;;;1.94;94.98;91759.84;4879556;29;20449;-72
2021/12/20 09:30:36;;;;;;;53.17;33.20;;;;;;;2.18;95.13;91749.28;4880354;29;20583;-71
2021/12/20 09:33:04;;;;;;;63.90;34.10;;;;;;;2.65;93.27;91764.66;4880236;29;20567;-72
2021/12/20 09:35:32;;;;;;;30.70;22.47;;;;;;;2.89;92.73;91763.97;4881261;29;20601;-73
2021/12/20 09:37:59;;;;;;;73.67;37.97;;;;;;;3.20;91.47;91774.72;4880135;29;20579;-71
2021/12/20 09:40:33;;;;;;;24.57;18.83;;;;;;;3.47;83.82;91793.06;4879468;29;20245;-72
2021/12/20 09:43:03;;;;;;;50.53;28.80;;;;;;;3.57;80.72;91781.13;4879968;29;20193;-72
2021/12/20 09:45:33;;;;;;;89.97;34.63;;;;;;;3.89;81.37;91785.94;4879293;29;20198;-71
2021/12/20 09:48:01;;;;;;;58.43;34.87;;;;;;;3.95;80.23;91793.25;4880011;29;20478;-72
2021/12/20 09:50:29;;;;;;;64.97;34.80;;;;;;;3.87;80.22;91784.38;4879885;29;20471;-72
2021/12/20 09:52:58;;;;;;;62.87;32.50;;;;;;;3.97;81.17;91775.72;4879422;29;20199;-73
2021/12/20 09:55:26;;;;;;;44.43;26.13;;;;;;;4.18;78.62;91800.81;4879064;29;20533;-72
2021/12/20 09:57:54;;;;;;;14.70;13.20;;;;;;;4.39;75.96;91811.84;4879688;29;20614;-72
2021/12/20 10:00:23;;;;;;;43.33;18.00;;;;;;;4.54;75.79;91793.00;4880279;29;20231;-73
2021/12/20 10:02:52;;;;;;;6.97;6.57;;;;;;;5.31;69.63;91840.34;4880325;29;20513;-72
2021/12/20 10:05:19;;;;;;;16.27;11.77;;;;;;;6.55;66.16;91844.84;4879521;29;20490;-72
2021/12/20 10:07:50;;;;;;;13.83;11.30;;;;;;;8.18;59.71;91873.81;4860383;29;20468;-72
2021/12/20 10:10:41;;;;;;;9.50;8.37;;;;;;;9.87;52.97;91889.03;4860672;29;20551;-72
2021/12/20 10:13:09;;;;;;;62.20;31.23;;;;;;;11.55;49.98;91888.22;4861991;29;20203;-73
2021/12/20 10:15:38;;;;;;;142.47;46.20;;;;;;;12.70;44.83;91891.38;4879811;29;20459;-72
2021/12/20 10:18:13;;;;;;;66.00;25.53;;;;;;;13.54;39.11;91909.69;4880607;29;20563;-72
2021/12/20 10:20:40;;;;;;;4.53;4.13;;;;;;;13.95;35.20;91909.50;4879469;29;20621;-71
2021/12/20 10:23:17;;;;;;;8.07;6.88;;;;;;;14.58;35.72;91895.91;4879260;29;20635;-72
2021/12/20 10:25:46;;;;;;;21.58;11.75;;;;;;;14.96;35.21;91897.47;4879967;29;20578;-72
2021/12/20 10:28:16;;;;;;;33.15;15.00;;;;;;;15.39;34.83;91868.03;4879285;29;20199;-72
2021/12/20 10:30:45;;;;;;;45.15;20.23;;;;;;;15.53;33.63;91878.06;4879943;29;20708;-72
2021/12/20 10:33:16;;;;;;;45.72;20.80;;;;;;;15.61;32.28;91896.13;4883719;29;20586;-72
2021/12/20 10:35:47;;;;;;;34.75;16.35;;;;;;;16.07;32.33;91890.16;4882401;29;20475;-72
2021/12/20 10:38:27;;;;;;;23.33;13.90;;;;;;;16.46;32.93;91878.66;4883410;29;20455;-72
2021/12/20 10:40:58;;;;;;;15.88;10.23;;;;;;;16.61;31.38;91882.63;4881402;29;20693;-73
2021/12/20 10:43:28;;;;;;;29.95;13.90;;;;;;;17.06;31.20;91887.63;4880430;29;20612;-73
2021/12/20 10:45:57;;;;;;;30.95;15.23;;;;;;;17.30;30.23;91881.38;4883220;29;20564;-73
2021/12/20 10:48:32;;;;;;;24.45;14.52;;;;;;;17.14;29.77;91875.88;4883289;29;20430;-73
2021/12/20 10:51:04;;;;;;;20.50;13.88;;;;;;;16.26;30.59;91826.69;4882113;29;20594;-73
2021/12/20 10:53:33;;;;;;;34.92;15.50;;;;;;;15.60;32.20;91845.31;4884256;29;20600;-73
2021/12/20 10:56:06;;;;;;;27.80;15.27;;;;;;;14.72;34.07;91844.06;4885846;29;20218;-73
2021/12/20 10:58:38;;;;;;;41.17;17.90;;;;;;;13.90;34.77;91812.50;4884165;29;20468;-72
2021/12/20 11:01:21;;;;;;;26.55;16.00;;;;;;;13.74;36.07;91831.41;4881696;29;20605;-72
2021/12/20 11:04:02;;;;;;;12.52;7.85;;;;;;;13.59;34.06;91848.47;4882920;29;20490;-72
2021/12/20 11:06:58;;;;;;;8.32;6.60;;;;;;;12.66;36.01;91815.66;4881691;29;20203;-72
2021/12/20 11:09:25;;;;;;;7.97;7.37;;;;;;;12.15;37.29;91827.31;4882339;29;20584;-72
2021/12/20 11:11:54;;;;;;;6.97;6.37;;;;;;;11.43;40.87;91793.66;4881464;29;20602;-73
2021/12/20 11:14:27;;;;;;;8.03;7.33;;;;;;;10.64;40.71;91767.94;4882624;29;20576;-73
2021/12/20 11:16:57;;;;;;;11.20;8.43;;;;;;;10.48;40.36;91779.00;4882300;29;20573;-73
2021/12/20 11:19:32;;;;;;;6.23;4.47;;;;;;;10.52;38.73;91816.59;4882112;29;20561;-73
2021/12/20 11:22:06;;;;;;;10.57;7.03;;;;;;;10.13;41.80;91784.22;4881776;29;20574;-73
2021/12/20 11:24:39;;;;;;;125.53;40.73;;;;;;;9.53;40.70;91746.25;4882961;29;20572;-73
2021/12/20 11:27:11;;;;;;;18.83;12.10;;;;;;;9.54;43.37;91777.31;4863571;29;20210;-73
2021/12/20 11:29:40;;;;;;;20.73;10.90;;;;;;;9.51;43.55;91734.63;4863724;29;20541;-73
2021/12/20 11:32:09;;;;;;;40.30;15.70;;;;;;;9.63;42.62;91740.72;4878358;29;20806;-76
2021/12/20 11:34:41;;;;;;;32.43;12.73;;;;;;;9.83;42.72;91804.34;4870099;29;20458;-75
2021/12/20 11:37:10;;;;;;;32.20;11.87;;;;;;;9.09;42.54;91725.88;4870494;29;20233;-76
2021/12/20 11:39:39;;;;;;;23.97;10.97;;;;;;;9.45;43.88;91776.09;4877257;29;20194;-76
2021/12/20 11:42:09;;;;;;;29.50;12.37;;;;;;;9.62;45.04;91772.69;4871866;29;20799;-76
2021/12/20 11:44:38;;;;;;;30.00;16.47;;;;;;;8.98;44.78;91680.28;4875448;29;20510;-76